Auguette, France

63°F / 17.2°C
Partly Cloudy
Humidity: 28%
Dew Point: 29°F / -2°C
Wind: WNW at 13.42 mph / 21.6 km/h
Wind Gust: 24.6 mph / 39.6 km/h
Pressure: 30.06 in / 1018 hPa (Rising)
Visibility: 6.2 miles / 10.0 kilometers
Clouds: (FEW) : 4600 ft / 1402 m
Yesterday's Maximum: 72.7°F / 22.6°C
Yesterday's Minimum: 59.2°F / 15.1°C
UV: 5.0 out of 16
Sunrise:6:40 AM CEST
Sunset:8:35 PM CEST
Moon Rise:2:42 AM CEST
Moon Set:12:08 PM CEST
Moon Phase Waning Gibbous
NOAA Weather Radio
No local feed.
METAR LFMI 261130Z AUTO 28010KT 9999 FEW046 18/06 Q1018 TEMPO SCT040TCU
As of: 1:42 PM CEST on April 26, 2019
Observed at: Orlandrf, Saint-Mitre-les-Remparts, France

View Station's History

No Yes

Local Satellite

Current Satellite Forecast
Region Default Local
No Yes

View Full Screen WunderMap

Forecast

Current Satellite Forecast

Features

Weather Apps

WunderRadio

Weather Underground Apps
Check out our wide variety of mobile and setup applications.

Weather Underground Applications

Top of Page

© Copyright 2019
The Weather Company, LLC